createdAt,value
2022-09-14T00:01:40.127Z,6.45
2022-09-14T00:04:17.511Z,6.85
2022-09-14T00:06:46.333Z,7.90
2022-09-14T00:09:17.160Z,5.28
2022-09-14T00:11:45.414Z,11.35
2022-09-14T00:14:13.748Z,6.22
2022-09-14T00:16:43.131Z,8.77
2022-09-14T00:19:18.933Z,6.07
2022-09-14T00:21:47.349Z,7.43
2022-09-14T00:24:15.508Z,6.18
2022-09-14T00:26:43.562Z,7.63
2022-09-14T00:29:12.222Z,5.50
2022-09-14T00:31:41.412Z,7.07
2022-09-14T00:34:16.188Z,6.20
2022-09-14T00:36:48.147Z,5.97
2022-09-14T00:39:17.282Z,8.40
2022-09-14T00:41:48.863Z,6.45
2022-09-14T00:44:54.949Z,4.57
2022-09-14T00:47:23.199Z,5.28
2022-09-14T00:49:51.984Z,5.78
2022-09-14T00:52:23.641Z,8.23
2022-09-14T00:54:55.244Z,5.05
2022-09-14T00:57:25.902Z,5.55
2022-09-14T00:59:55.588Z,5.78
2022-09-14T01:02:26.805Z,4.55
2022-09-14T01:04:56.291Z,6.75
2022-09-14T01:07:39.436Z,4.82
2022-09-14T01:10:19.886Z,5.15
2022-09-14T01:13:01.117Z,6.07
2022-09-14T01:15:37.394Z,5.90
2022-09-14T01:18:09.240Z,6.13
2022-09-14T01:20:41.190Z,5.57
2022-09-14T01:23:20.640Z,9.70
2022-09-14T01:26:08.252Z,5.25
2022-09-14T01:28:44.556Z,3.97
2022-09-14T01:31:17.861Z,7.82
2022-09-14T01:33:52.657Z,5.78
2022-09-14T01:36:21.755Z,6.03
2022-09-14T01:38:53.129Z,7.15
2022-09-14T01:41:25.885Z,6.90
2022-09-14T01:43:59.004Z,9.00
2022-09-14T01:46:31.285Z,5.72
2022-09-14T01:49:04.138Z,4.78
2022-09-14T01:51:40.150Z,6.97
2022-09-14T01:54:14.196Z,8.20
2022-09-14T01:56:49.421Z,5.57
2022-09-14T01:59:23.051Z,6.95
2022-09-14T02:01:54.375Z,8.88
2022-09-14T02:04:27.808Z,4.78
2022-09-14T02:06:57.328Z,5.53
2022-09-14T02:09:27.502Z,7.53
2022-09-14T02:12:00.595Z,8.85
2022-09-14T02:14:30.348Z,5.72
2022-09-14T02:16:58.952Z,4.22
2022-09-14T02:19:30.148Z,6.18
2022-09-14T02:21:58.179Z,6.95
2022-09-14T02:24:26.325Z,8.82
2022-09-14T02:26:56.089Z,8.52
2022-09-14T02:29:24.234Z,4.38
2022-09-14T02:32:06.084Z,5.60
2022-09-14T02:34:43.844Z,4.95
2022-09-14T02:37:17.632Z,5.88
2022-09-14T02:39:56.440Z,8.35
2022-09-14T02:42:30.826Z,7.07
2022-09-14T02:45:07.642Z,7.78
2022-09-14T02:47:47.733Z,9.25
2022-09-14T02:50:22.703Z,9.40
2022-09-14T02:52:56.720Z,5.75
2022-09-14T02:55:28.794Z,8.55
2022-09-14T02:58:05.065Z,6.85
2022-09-14T03:00:36.651Z,6.20
2022-09-14T03:03:07.454Z,7.82
2022-09-14T03:05:36.112Z,8.57
2022-09-14T03:08:05.182Z,8.35
2022-09-14T03:10:34.165Z,8.38
2022-09-14T03:13:02.212Z,9.32
2022-09-14T03:15:31.303Z,11.57
2022-09-14T03:17:59.335Z,16.70
2022-09-14T03:20:30.703Z,9.82
2022-09-14T03:23:00.394Z,12.60
2022-09-14T03:25:29.032Z,8.40
2022-09-14T03:27:58.960Z,10.15
2022-09-14T03:30:28.021Z,10.25
2022-09-14T03:32:56.248Z,7.90
2022-09-14T03:35:24.561Z,10.25
2022-09-14T03:37:54.308Z,11.50
2022-09-14T03:40:22.410Z,11.35
2022-09-14T03:42:51.966Z,11.95
2022-09-14T03:45:21.235Z,12.63
2022-09-14T03:47:50.121Z,11.35
2022-09-14T03:50:19.449Z,14.35
2022-09-14T03:52:47.705Z,14.73
2022-09-14T03:55:19.257Z,9.77
2022-09-14T03:57:47.357Z,10.13
2022-09-14T04:00:16.034Z,12.45
2022-09-14T04:07:07.651Z,9.93
2022-09-14T04:09:35.904Z,12.35
2022-09-14T04:12:06.108Z,10.07
2022-09-14T04:14:34.708Z,11.75
2022-09-14T04:17:03.265Z,10.25
2022-09-14T04:19:33.261Z,11.60
2022-09-14T04:22:01.416Z,12.65
2022-09-14T04:24:30.855Z,8.98
2022-09-14T04:27:36.803Z,9.95
2022-09-14T04:30:06.109Z,10.07
2022-09-14T04:32:34.727Z,10.82
2022-09-14T04:35:03.275Z,9.60
2022-09-14T04:37:32.992Z,14.05
2022-09-14T04:40:01.237Z,12.38
2022-09-14T04:42:30.953Z,10.35
2022-09-14T04:45:00.608Z,9.50
2022-09-14T04:47:30.828Z,12.98
2022-09-14T04:49:59.034Z,11.68
2022-09-14T04:52:27.376Z,12.93
2022-09-14T04:54:55.581Z,11.45
2022-09-14T04:57:23.930Z,11.40
2022-09-14T04:59:52.132Z,14.15
2022-09-14T05:02:21.816Z,11.00
2022-09-14T05:04:50.219Z,11.20
2022-09-14T05:07:18.312Z,12.77
2022-09-14T05:09:46.485Z,9.88
2022-09-14T05:12:14.612Z,10.40
2022-09-14T05:14:42.750Z,13.85
2022-09-14T05:17:11.099Z,17.40
2022-09-14T05:19:40.947Z,16.80
2022-09-14T05:22:09.054Z,16.63
2022-09-14T05:24:37.198Z,17.20
2022-09-14T05:27:05.597Z,17.15
2022-09-14T05:29:33.853Z,17.20
2022-09-14T05:32:01.969Z,17.63
2022-09-14T05:34:30.137Z,18.08
2022-09-14T05:36:59.775Z,17.95
2022-09-14T05:39:27.940Z,16.67
2022-09-14T05:41:56.035Z,15.73
2022-09-14T05:44:24.101Z,16.35
2022-09-14T05:46:52.232Z,16.80
2022-09-14T05:49:20.413Z,18.08
2022-09-14T05:51:48.432Z,15.95
2022-09-14T05:54:17.974Z,16.80
2022-09-14T05:56:46.028Z,15.15
2022-09-14T05:59:14.291Z,15.38
2022-09-14T06:01:42.340Z,15.55
2022-09-14T06:04:12.405Z,16.48
2022-09-14T06:06:40.494Z,16.77
2022-09-14T06:09:08.615Z,17.52
2022-09-14T06:11:38.052Z,14.65
2022-09-14T06:14:07.503Z,16.48
2022-09-14T06:16:36.169Z,15.35
2022-09-14T06:19:04.518Z,16.67
2022-09-14T06:21:35.257Z,15.57
2022-09-14T06:24:03.743Z,16.40
2022-09-14T06:26:32.061Z,16.08
2022-09-14T06:29:01.551Z,16.98
2022-09-14T06:31:29.599Z,17.85
2022-09-14T06:33:57.916Z,21.73
2022-09-14T06:36:27.456Z,20.05
2022-09-14T06:38:56.554Z,19.55
2022-09-14T06:41:29.118Z,19.00
2022-09-14T06:43:58.304Z,18.60
2022-09-14T06:46:29.800Z,20.13
2022-09-14T06:48:59.936Z,20.10
2022-09-14T06:51:30.968Z,20.08
2022-09-14T06:54:00.515Z,20.88
2022-09-14T06:56:29.490Z,17.33
2022-09-14T06:58:58.988Z,20.58
2022-09-14T07:01:29.898Z,18.80
2022-09-14T07:03:58.348Z,19.30
2022-09-14T07:06:28.004Z,18.85
2022-09-14T07:08:57.764Z,20.40
2022-09-14T07:11:29.471Z,17.60
2022-09-14T07:13:58.889Z,24.60
2022-09-14T07:16:29.069Z,17.38
2022-09-14T07:18:58.420Z,15.52
2022-09-14T07:21:27.468Z,16.15
2022-09-14T07:23:56.667Z,16.00
2022-09-14T07:26:28.985Z,17.80
2022-09-14T07:28:58.661Z,15.70
2022-09-14T07:31:31.747Z,17.27
2022-09-14T07:34:01.850Z,16.20
2022-09-14T07:36:35.026Z,19.15
2022-09-14T07:39:05.303Z,20.08
2022-09-14T07:41:34.784Z,20.15
2022-09-14T07:44:05.357Z,22.35
2022-09-14T07:46:39.292Z,17.67
2022-09-14T07:49:08.699Z,18.13
2022-09-14T07:51:37.343Z,21.05
2022-09-14T07:54:06.262Z,19.17
2022-09-14T07:56:35.430Z,18.23
2022-09-14T07:59:33.512Z,22.92
2022-09-14T08:01:54.621Z,22.63
2022-09-14T08:04:23.351Z,21.60
2022-09-14T08:06:51.438Z,23.23
2022-09-14T08:09:19.484Z,18.98
2022-09-14T08:11:47.573Z,18.08
2022-09-14T08:14:15.670Z,18.92
2022-09-14T08:16:43.813Z,19.02
2022-09-14T08:19:18.281Z,19.23
2022-09-14T08:21:47.710Z,17.60
2022-09-14T08:24:18.306Z,15.48
2022-09-14T08:26:46.689Z,15.50
2022-09-14T08:29:15.632Z,12.98
2022-09-14T08:31:45.642Z,15.27
2022-09-14T08:34:16.471Z,15.07
2022-09-14T08:36:45.903Z,13.40
2022-09-14T08:39:16.578Z,11.55
2022-09-14T08:41:50.432Z,10.93
2022-09-14T08:44:22.067Z,10.63
2022-09-14T08:46:53.402Z,9.98
2022-09-14T08:49:30.781Z,9.70
2022-09-14T08:51:58.999Z,9.23
2022-09-14T08:54:27.360Z,9.68
2022-09-14T08:57:10.774Z,8.27
2022-09-14T08:59:47.259Z,12.07
2022-09-14T09:02:35.169Z,9.07
2022-09-14T09:05:21.181Z,9.07
2022-09-14T09:07:57.180Z,9.93
2022-09-14T09:10:27.131Z,9.85
2022-09-14T09:12:58.821Z,8.15
2022-09-14T09:15:30.725Z,8.77
2022-09-14T09:18:03.183Z,8.30
2022-09-14T09:20:35.621Z,8.23
2022-09-14T09:23:13.379Z,8.68
2022-09-14T09:25:52.976Z,8.38
2022-09-14T09:28:23.088Z,9.43
2022-09-14T09:30:51.339Z,9.75
2022-09-14T09:33:22.674Z,10.07
2022-09-14T09:35:53.356Z,9.80
2022-09-14T09:38:24.986Z,11.45
2022-09-14T09:40:56.193Z,9.90
2022-09-14T09:43:38.988Z,10.50
2022-09-14T09:46:13.444Z,10.50
2022-09-14T09:48:44.116Z,12.02
2022-09-14T09:51:17.466Z,10.48
2022-09-14T09:53:50.333Z,9.73
2022-09-14T09:56:21.200Z,13.80
2022-09-14T09:58:51.765Z,8.95
2022-09-14T10:01:23.976Z,10.07
2022-09-14T10:04:04.215Z,8.45
2022-09-14T10:06:41.461Z,9.38
2022-09-14T10:09:15.447Z,7.95
2022-09-14T10:11:45.202Z,9.50
2022-09-14T10:14:31.308Z,8.68
2022-09-14T10:17:17.438Z,8.90
2022-09-14T10:19:48.821Z,8.63
2022-09-14T10:22:27.921Z,8.93
2022-09-14T10:24:58.958Z,8.63
2022-09-14T10:27:38.332Z,8.85
2022-09-14T10:30:12.160Z,9.43
2022-09-14T10:32:42.487Z,9.35
2022-09-14T10:35:15.399Z,10.43
2022-09-14T10:37:55.155Z,9.85
2022-09-14T10:40:31.723Z,9.40
2022-09-14T10:43:10.738Z,10.05
2022-09-14T10:45:42.526Z,10.85
2022-09-14T10:48:33.852Z,12.98
2022-09-14T10:51:18.794Z,13.20
2022-09-14T10:53:59.062Z,12.18
2022-09-14T10:56:34.672Z,13.48
2022-09-14T10:59:23.700Z,13.93
2022-09-14T11:02:14.045Z,13.20
2022-09-14T11:05:06.312Z,11.98
2022-09-14T11:07:43.197Z,13.40
2022-09-14T11:10:21.174Z,14.35
2022-09-14T11:12:58.619Z,13.25
2022-09-14T11:15:31.832Z,12.75
2022-09-14T11:18:15.460Z,15.30
2022-09-14T11:21:02.087Z,14.73
2022-09-14T11:23:42.143Z,14.63
2022-09-14T11:26:15.752Z,15.63
2022-09-14T11:28:47.762Z,13.45
2022-09-14T11:31:21.603Z,13.80
2022-09-14T11:33:55.259Z,14.07
2022-09-14T11:36:27.176Z,15.52
2022-09-14T11:39:04.691Z,16.88
2022-09-14T11:41:42.605Z,14.40
2022-09-14T11:44:15.977Z,15.15
2022-09-14T11:46:47.993Z,14.38
2022-09-14T11:49:20.739Z,14.05
2022-09-14T11:51:53.575Z,14.75
2022-09-14T11:54:23.530Z,14.25
2022-09-14T11:56:55.976Z,14.75
2022-09-14T11:59:48.351Z,14.75
2022-09-14T12:03:00.215Z,13.65
2022-09-14T12:05:34.288Z,14.13
2022-09-14T12:08:27.055Z,15.77
2022-09-14T12:11:32.431Z,15.27
2022-09-14T12:14:33.968Z,14.20
2022-09-14T12:20:30.934Z,12.85
2022-09-14T12:23:19.234Z,15.35
2022-09-14T12:26:08.399Z,13.00
2022-09-14T12:28:47.828Z,12.55
2022-09-14T12:31:59.237Z,13.70
2022-09-14T12:34:31.778Z,12.98
2022-09-14T12:37:05.688Z,13.38
2022-09-14T12:39:37.978Z,13.02
2022-09-14T12:42:27.823Z,14.45
2022-09-14T12:44:56.260Z,13.70
2022-09-14T12:47:52.589Z,14.15
2022-09-14T12:50:22.843Z,14.82
2022-09-14T12:53:14.872Z,14.38
2022-09-14T12:55:53.473Z,14.68
2022-09-14T12:58:44.935Z,14.68
2022-09-14T13:01:23.041Z,13.93
2022-09-14T13:03:54.687Z,12.65
2022-09-14T13:06:24.424Z,13.85
2022-09-14T13:08:57.807Z,13.52
2022-09-14T13:11:31.903Z,13.05
2022-09-14T13:14:01.299Z,13.90
2022-09-14T13:16:38.770Z,13.02
2022-09-14T13:19:23.075Z,11.63
2022-09-14T13:21:53.132Z,11.90
2022-09-14T13:24:31.211Z,11.98
2022-09-14T13:27:01.961Z,12.98
2022-09-14T13:29:31.105Z,12.88
2022-09-14T13:32:03.668Z,12.65
2022-09-14T13:34:36.688Z,12.45
2022-09-14T13:37:06.504Z,12.13
2022-09-14T13:39:37.993Z,13.48
2022-09-14T13:42:07.400Z,10.98
2022-09-14T13:44:36.985Z,10.38
2022-09-14T13:47:06.844Z,11.48
2022-09-14T13:49:37.582Z,11.75
2022-09-14T13:52:20.048Z,12.85
2022-09-14T13:54:48.383Z,10.00
2022-09-14T13:57:18.499Z,10.13
2022-09-14T14:00:20.008Z,9.18
2022-09-14T14:02:50.420Z,9.20
2022-09-14T14:05:25.297Z,9.02
2022-09-14T14:07:53.599Z,8.25
2022-09-14T14:10:27.267Z,8.48
2022-09-14T14:12:55.798Z,6.47
2022-09-14T14:15:39.768Z,6.35
2022-09-14T14:18:47.324Z,6.50
2022-09-14T14:21:26.920Z,6.47
2022-09-14T14:24:15.804Z,6.40
2022-09-14T14:26:49.895Z,7.03
2022-09-14T14:29:18.302Z,6.65
2022-09-14T14:31:46.790Z,6.75
2022-09-14T14:34:23.414Z,5.75
2022-09-14T14:36:53.273Z,5.53
2022-09-14T14:39:23.454Z,5.05
2022-09-14T14:41:52.527Z,5.43
2022-09-14T14:44:23.467Z,4.97
2022-09-14T14:46:51.611Z,5.03
2022-09-14T14:49:20.387Z,5.55
2022-09-14T14:51:49.008Z,5.95
2022-09-14T14:54:19.185Z,6.32
2022-09-14T14:56:48.153Z,6.10
2022-09-14T14:59:23.274Z,6.15
2022-09-14T15:01:52.689Z,6.70
2022-09-14T15:04:21.525Z,6.13
2022-09-14T15:06:50.180Z,6.75
2022-09-14T15:09:21.677Z,6.75
2022-09-14T15:11:50.593Z,5.50
2022-09-14T15:14:23.852Z,5.60
2022-09-14T15:16:58.149Z,5.45
2022-09-14T15:19:26.636Z,5.60
2022-09-14T15:22:00.066Z,5.95
2022-09-14T15:24:31.230Z,5.82
2022-09-14T15:26:59.905Z,5.32
2022-09-14T15:29:28.114Z,5.70
2022-09-14T15:31:56.407Z,5.70
2022-09-14T15:34:24.691Z,6.95
2022-09-14T15:36:54.411Z,6.50
2022-09-14T15:39:25.148Z,6.47
2022-09-14T15:41:55.321Z,6.93
2022-09-14T15:44:24.016Z,6.28
2022-09-14T15:46:52.737Z,7.07
2022-09-14T15:49:22.469Z,8.25
2022-09-14T15:51:52.437Z,8.35
2022-09-14T15:54:22.948Z,12.55
2022-09-14T15:56:52.239Z,6.97
2022-09-14T15:59:22.738Z,6.43
2022-09-14T16:01:51.131Z,6.57
2022-09-14T16:04:19.910Z,7.60
2022-09-14T16:06:48.562Z,7.60
2022-09-14T16:09:18.277Z,8.25
2022-09-14T16:11:46.459Z,8.00
2022-09-14T16:14:14.593Z,10.32
2022-09-14T16:16:44.126Z,9.20
2022-09-14T16:19:14.618Z,8.23
2022-09-14T16:21:43.605Z,8.55
2022-09-14T16:24:14.021Z,8.45
2022-09-14T16:26:42.850Z,9.27
2022-09-14T16:29:12.980Z,8.48
2022-09-14T16:31:43.959Z,10.05
2022-09-14T16:34:15.430Z,8.10
2022-09-14T16:36:44.518Z,8.77
2022-09-14T16:39:14.781Z,9.95
2022-09-14T16:41:43.372Z,9.98
2022-09-14T16:44:14.247Z,10.98
2022-09-14T16:46:44.266Z,10.93
2022-09-14T16:49:12.391Z,11.38
2022-09-14T16:51:40.461Z,11.57
2022-09-14T16:54:09.343Z,10.20
2022-09-14T16:56:38.920Z,9.65
2022-09-14T16:59:08.458Z,10.15
2022-09-14T17:01:38.363Z,9.13
2022-09-14T17:04:10.219Z,11.52
2022-09-14T17:06:41.020Z,10.40
2022-09-14T17:09:12.210Z,10.07
2022-09-14T17:11:41.536Z,11.65
2022-09-14T17:14:10.836Z,9.43
2022-09-14T17:16:38.936Z,9.45
2022-09-14T17:19:08.453Z,10.15
2022-09-14T17:21:39.917Z,10.18
2022-09-14T17:24:08.822Z,9.00
2022-09-14T17:26:37.206Z,9.93
2022-09-14T17:29:06.662Z,12.20
2022-09-14T17:31:37.997Z,10.43
2022-09-14T17:34:10.661Z,9.43
2022-09-14T17:36:39.138Z,8.98
2022-09-14T17:39:11.929Z,8.75
2022-09-14T17:41:41.326Z,10.13
2022-09-14T17:44:12.383Z,7.93
2022-09-14T17:46:49.594Z,7.57
2022-09-14T17:49:21.832Z,9.88
2022-09-14T17:51:50.316Z,7.78
2022-09-14T17:54:19.174Z,8.73
2022-09-14T17:56:47.566Z,7.70
2022-09-14T17:59:17.783Z,10.55
2022-09-14T18:01:45.898Z,8.48
2022-09-14T18:04:16.249Z,8.25
2022-09-14T18:06:47.871Z,8.40
2022-09-14T18:09:17.770Z,7.85
2022-09-14T18:11:46.058Z,8.05
2022-09-14T18:14:15.745Z,8.60
2022-09-14T18:16:45.228Z,8.13
2022-09-14T18:19:13.997Z,9.88
2022-09-14T18:21:42.843Z,9.10
2022-09-14T18:24:15.092Z,9.25
2022-09-14T18:26:43.594Z,11.82
2022-09-14T18:29:15.371Z,12.18
2022-09-14T18:31:44.104Z,10.73
2022-09-14T18:34:12.266Z,11.68
2022-09-14T18:36:40.363Z,10.93
2022-09-14T18:39:08.385Z,12.75
2022-09-14T18:41:37.827Z,9.70
2022-09-14T18:44:06.190Z,8.23
2022-09-14T18:46:34.547Z,7.43
2022-09-14T18:49:03.434Z,6.75
2022-09-14T18:51:33.128Z,6.68
2022-09-14T18:54:03.248Z,9.23
2022-09-14T18:56:33.149Z,5.63
2022-09-14T18:59:04.043Z,6.97
2022-09-14T19:01:34.265Z,7.85
2022-09-14T19:04:03.794Z,8.32
2022-09-14T19:06:32.255Z,6.90
2022-09-14T19:09:00.290Z,5.63
2022-09-14T19:11:31.802Z,6.28
2022-09-14T19:14:04.972Z,7.10
2022-09-14T19:16:33.121Z,5.65
2022-09-14T19:19:01.155Z,6.88
2022-09-14T19:21:31.164Z,9.40
2022-09-14T19:24:00.649Z,5.60
2022-09-14T19:26:30.954Z,7.32
2022-09-14T19:29:01.384Z,5.63
2022-09-14T19:31:33.540Z,6.25
2022-09-14T19:34:03.052Z,6.35
2022-09-14T19:36:31.688Z,6.85
2022-09-14T19:39:01.930Z,6.57
2022-09-14T19:41:31.404Z,8.65
2022-09-14T19:43:59.938Z,7.32
2022-09-14T19:46:31.332Z,6.88
2022-09-14T19:48:59.841Z,6.88
2022-09-14T19:51:30.210Z,8.07
2022-09-14T19:54:00.497Z,8.43
2022-09-14T19:56:31.169Z,8.10
2022-09-14T19:59:01.007Z,8.43
2022-09-14T20:01:32.771Z,7.95
2022-09-14T20:04:01.000Z,8.77
2022-09-14T20:06:31.749Z,9.75
2022-09-14T20:09:01.589Z,9.63
2022-09-14T20:11:31.184Z,10.18
2022-09-14T20:14:01.398Z,12.45
2022-09-14T20:16:33.901Z,13.15
2022-09-14T20:19:06.155Z,11.85
2022-09-14T20:21:35.982Z,15.75
2022-09-14T20:24:15.660Z,14.18
2022-09-14T20:26:44.865Z,14.15
2022-09-14T20:29:12.921Z,14.25
2022-09-14T20:31:42.465Z,15.30
2022-09-14T20:34:10.782Z,13.70
2022-09-14T20:36:39.048Z,14.40
2022-09-14T20:39:07.269Z,15.07
2022-09-14T20:41:36.615Z,19.92
2022-09-14T20:44:05.487Z,16.52
2022-09-14T20:46:36.039Z,17.98
2022-09-14T20:49:07.669Z,16.98
2022-09-14T20:51:36.608Z,19.48
2022-09-14T20:54:05.170Z,17.05
2022-09-14T20:56:35.102Z,14.57
2022-09-14T20:59:05.597Z,15.07
2022-09-14T21:01:36.967Z,19.00
2022-09-14T21:04:09.192Z,18.35
2022-09-14T21:06:38.876Z,18.17
2022-09-14T21:09:07.932Z,16.02
2022-09-14T21:11:36.497Z,18.20
2022-09-14T21:14:04.810Z,20.95
2022-09-14T21:16:34.723Z,21.80
2022-09-14T21:19:05.244Z,15.38
2022-09-14T21:21:35.024Z,16.67
2022-09-14T21:24:05.585Z,18.85
2022-09-14T21:26:34.569Z,20.85
2022-09-14T21:29:05.395Z,17.83
2022-09-14T21:31:34.583Z,17.83
2022-09-14T21:34:04.185Z,16.98
2022-09-14T21:36:35.677Z,16.30
2022-09-14T21:39:06.439Z,18.40
2022-09-14T21:41:34.624Z,17.48
2022-09-14T21:44:03.170Z,18.25
2022-09-14T21:46:31.429Z,18.90
2022-09-14T21:48:59.591Z,18.65
2022-09-14T21:51:31.108Z,16.63
2022-09-14T21:54:02.900Z,15.02
2022-09-14T21:56:34.451Z,16.80
2022-09-14T21:59:04.587Z,16.88
2022-09-14T22:01:32.819Z,21.02
2022-09-14T22:04:02.207Z,16.40
2022-09-14T22:06:32.474Z,18.65
2022-09-14T22:09:02.724Z,83.03
2022-09-14T22:11:32.884Z,20.35
2022-09-14T22:14:03.538Z,18.55
2022-09-14T22:16:34.395Z,99.43
2022-09-14T22:19:05.447Z,40.38
2022-09-14T22:21:37.641Z,25.58
2022-09-14T22:24:09.869Z,13.60
2022-09-14T22:26:39.614Z,22.27
2022-09-14T22:29:09.598Z,15.80
2022-09-14T22:31:39.847Z,45.80
2022-09-14T22:34:08.445Z,18.20
2022-09-14T22:36:36.863Z,60.08
2022-09-14T22:39:07.021Z,98.25
2022-09-14T22:41:35.871Z,119.57
2022-09-14T22:44:05.172Z,30.83
2022-09-14T22:46:33.317Z,26.27
2022-09-14T22:49:01.450Z,19.38
2022-09-14T22:51:30.560Z,17.02
2022-09-14T22:53:59.049Z,271.77
2022-09-14T22:56:31.213Z,389.00
2022-09-14T22:59:00.402Z,13.32
2022-09-14T23:01:30.777Z,9.02
2022-09-14T23:04:00.938Z,304.48
2022-09-14T23:06:30.381Z,256.75
2022-09-14T23:09:00.400Z,99.97
2022-09-14T23:11:30.181Z,296.80
2022-09-14T23:13:58.856Z,322.00
2022-09-14T23:16:28.836Z,418.05
2022-09-14T23:18:59.321Z,224.23
2022-09-14T23:21:28.549Z,23.67
2022-09-14T23:23:58.567Z,100.20
2022-09-14T23:26:27.022Z,20.50
2022-09-14T23:28:58.487Z,77.97
2022-09-14T23:31:28.903Z,15.02
2022-09-14T23:33:59.040Z,14.40
2022-09-14T23:36:28.357Z,58.58
2022-09-14T23:38:56.654Z,36.33
2022-09-14T23:41:26.285Z,34.95
2022-09-14T23:43:56.127Z,66.93
2022-09-14T23:46:24.812Z,45.17
2022-09-14T23:48:53.230Z,340.13
2022-09-14T23:51:21.565Z,397.70
2022-09-14T23:53:49.599Z,149.90
2022-09-14T23:56:17.950Z,323.80
2022-09-14T23:58:46.236Z,83.75
